Time;durP1;ratioP1;P1;durP2;ratioP2;P2;SDS_P1;SDS_P2;PMS_P1;PMS_P2;Temp;Humidity;BMP_temperature;BMP_pressure;BME280_temperature;BME280_humidity;BME280_pressure;Samples;Min_cycle;Max_cycle;Signal;HPM_P1;HPM_P2
2020/12/12 00:02:23;;;;;;;45.58;27.30;;;;;;;0.30;81.00;94893.00;5050231;28;20061;-53
2020/12/12 00:04:53;;;;;;;51.08;29.30;;;;;;;0.28;81.00;94887.25;5012540;28;20049;-56
2020/12/12 00:07:24;;;;;;;51.67;27.17;;;;;;;0.30;81.32;94887.81;5035976;28;20049;-55
2020/12/12 00:09:52;;;;;;;56.17;29.42;;;;;;;0.29;81.17;94888.84;5052980;28;20494;-55
2020/12/12 00:12:20;;;;;;;52.42;29.35;;;;;;;0.30;81.59;94885.22;5018895;28;20397;-55
2020/12/12 00:14:46;;;;;;;56.90;31.20;;;;;;;0.32;81.59;94881.59;4981328;28;20065;-55
2020/12/12 00:17:14;;;;;;;57.97;31.30;;;;;;;0.30;81.59;94887.00;5011077;28;20062;-55
2020/12/12 00:19:42;;;;;;;57.38;29.02;;;;;;;0.31;81.66;94886.00;5022477;28;20417;-55
2020/12/12 00:22:09;;;;;;;53.90;29.83;;;;;;;0.32;81.85;94879.00;5053982;28;20049;-55
2020/12/12 00:24:37;;;;;;;53.80;28.90;;;;;;;0.27;81.34;94867.50;5001605;28;20061;-52
2020/12/12 00:27:04;;;;;;;58.60;29.77;;;;;;;0.27;81.82;94871.88;5021153;28;20042;-53
2020/12/12 00:29:31;;;;;;;65.45;34.00;;;;;;;0.33;81.67;94870.22;5015502;28;20125;-53
2020/12/12 00:31:59;;;;;;;60.20;30.88;;;;;;;0.36;81.79;94875.78;5011947;28;20054;-53
2020/12/12 00:34:27;;;;;;;60.10;31.45;;;;;;;0.36;82.18;94872.38;5013269;28;20045;-54
2020/12/12 00:36:55;;;;;;;63.33;33.45;;;;;;;0.35;82.40;94873.41;5009228;28;20509;-54
2020/12/12 00:39:23;;;;;;;65.20;31.40;;;;;;;0.32;81.97;94864.25;5044096;28;20045;-53
2020/12/12 00:41:50;;;;;;;65.90;36.00;;;;;;;0.29;82.35;94875.84;5016255;28;20068;-54
2020/12/12 00:44:20;;;;;;;62.30;29.38;;;;;;;0.33;82.67;94875.41;5034082;28;20053;-54
2020/12/12 00:46:49;;;;;;;57.40;29.77;;;;;;;0.33;82.18;94875.41;5014799;28;20406;-53
2020/12/12 00:49:17;;;;;;;62.63;30.80;;;;;;;0.37;82.31;94876.56;5047200;28;20050;-54
2020/12/12 00:51:45;;;;;;;65.15;32.33;;;;;;;0.36;82.38;94877.56;5054192;28;20049;-54
2020/12/12 00:54:12;;;;;;;65.20;32.75;;;;;;;0.29;82.57;94868.06;5048164;28;20042;-56
2020/12/12 00:56:40;;;;;;;59.80;31.70;;;;;;;0.31;82.31;94873.03;4979094;28;20073;-56
2020/12/12 00:59:07;;;;;;;64.53;33.08;;;;;;;0.33;82.16;94862.44;5002325;28;20053;-53
2020/12/12 01:01:36;;;;;;;60.85;31.92;;;;;;;0.41;82.40;94873.31;5034728;28;20378;-53
2020/12/12 01:04:03;;;;;;;57.45;32.17;;;;;;;0.43;82.09;94867.94;5010577;28;20072;-53
2020/12/12 01:06:30;;;;;;;54.33;29.38;;;;;;;0.40;82.30;94869.13;5046004;28;20057;-53
2020/12/12 01:08:57;;;;;;;55.13;28.58;;;;;;;0.34;82.54;94861.44;5022679;28;20060;-54
2020/12/12 01:11:25;;;;;;;71.65;34.72;;;;;;;0.43;82.15;94857.56;5035143;28;20053;-53
2020/12/12 01:13:52;;;;;;;53.58;28.77;;;;;;;0.47;82.06;94863.88;5012032;28;20052;-54
2020/12/12 01:16:19;;;;;;;59.40;33.55;;;;;;;0.48;82.20;94852.50;5045865;28;20061;-55
2020/12/12 01:18:47;;;;;;;60.35;33.00;;;;;;;0.47;82.21;94857.91;5028512;28;20284;-53
2020/12/12 01:21:15;;;;;;;70.45;34.20;;;;;;;0.42;82.35;94845.59;5024585;28;20084;-53
2020/12/12 01:23:43;;;;;;;63.97;31.75;;;;;;;0.43;81.68;94845.34;5012546;28;20045;-53
2020/12/12 01:26:12;;;;;;;59.78;34.15;;;;;;;0.46;82.44;94849.31;5030463;28;20053;-58
2020/12/12 01:28:40;;;;;;;72.95;35.78;;;;;;;0.42;82.06;94854.16;4986589;28;911174;-54
2020/12/12 01:31:11;;;;;;;65.35;34.28;;;;;;;0.42;82.03;94843.00;5000106;28;20041;-53
2020/12/12 01:33:40;;;;;;;74.78;34.65;;;;;;;0.41;82.13;94841.41;5021352;28;20045;-53
2020/12/12 01:36:07;;;;;;;66.82;34.58;;;;;;;0.38;81.92;94829.66;5013233;28;20053;-55
2020/12/12 01:38:35;;;;;;;73.47;36.25;;;;;;;0.37;82.71;94837.66;5052865;28;20054;-54
2020/12/12 01:41:03;;;;;;;72.97;36.30;;;;;;;0.36;82.46;94831.69;5021904;28;20069;-53
2020/12/12 01:43:30;;;;;;;68.22;35.88;;;;;;;0.35;82.49;94827.50;5020131;28;20072;-53
2020/12/12 01:45:58;;;;;;;82.00;36.60;;;;;;;0.38;82.34;94823.69;5020763;28;20085;-57
2020/12/12 01:48:25;;;;;;;78.05;40.92;;;;;;;0.37;82.45;94829.88;5021420;28;20061;-54
2020/12/12 01:50:53;;;;;;;62.60;33.67;;;;;;;0.35;82.80;94831.88;5032677;28;20593;-53
2020/12/12 01:53:25;;;;;;;69.00;33.58;;;;;;;0.42;82.53;94820.44;5038267;28;20053;-52
2020/12/12 01:55:56;;;;;;;67.13;36.08;;;;;;;0.41;82.43;94821.44;5022647;28;20045;-54
2020/12/12 01:58:24;;;;;;;62.53;34.63;;;;;;;0.40;82.78;94816.47;5011206;28;20075;-53
2020/12/12 02:00:51;;;;;;;55.42;31.13;;;;;;;0.42;82.42;94819.66;5020566;28;20050;-53
2020/12/12 02:03:23;;;;;;;66.95;35.35;;;;;;;0.42;82.45;94819.66;5018022;28;20056;-54
2020/12/12 02:05:57;;;;;;;71.10;36.92;;;;;;;0.44;82.54;94822.78;5049655;28;20057;-53
2020/12/12 02:08:24;;;;;;;79.60;37.75;;;;;;;0.43;82.10;94816.03;5020363;28;20072;-57
2020/12/12 02:10:51;;;;;;;67.25;34.65;;;;;;;0.47;82.52;94818.97;5017819;28;20536;-53
2020/12/12 02:13:19;;;;;;;77.18;32.72;;;;;;;0.47;82.41;94806.00;5024741;28;20060;-55
2020/12/12 02:15:46;;;;;;;67.78;32.08;;;;;;;0.49;82.37;94802.19;5031525;28;20041;-60
2020/12/12 02:18:22;;;;;;;59.80;31.73;;;;;;;0.54;82.27;94793.72;5019078;28;20045;-55
2020/12/12 02:21:01;;;;;;;66.60;33.85;;;;;;;0.54;82.04;94799.72;5033094;28;20509;-54
2020/12/12 02:23:28;;;;;;;69.47;34.47;;;;;;;0.53;82.15;94789.56;5011999;28;20049;-54
2020/12/12 02:25:56;;;;;;;58.30;31.42;;;;;;;0.52;82.22;94790.56;5015723;28;20053;-53
2020/12/12 02:28:33;;;;;;;55.35;30.90;;;;;;;0.56;82.00;94784.72;4995939;28;20572;-54
2020/12/12 02:31:00;;;;;;;52.75;27.25;;;;;;;0.60;81.37;94788.47;5020975;28;20056;-54
2020/12/12 02:33:27;;;;;;;51.78;28.02;;;;;;;0.57;81.93;94788.88;5044876;28;20060;-55
2020/12/12 02:35:56;;;;;;;44.47;27.10;;;;;;;0.63;81.76;94789.03;4997876;28;20057;-54
2020/12/12 02:38:23;;;;;;;53.20;26.65;;;;;;;0.65;81.65;94784.41;5020700;28;20501;-54
2020/12/12 02:40:51;;;;;;;54.10;30.30;;;;;;;0.63;81.21;94786.44;5025400;28;20076;-54
2020/12/12 02:43:20;;;;;;;56.28;29.95;;;;;;;0.66;80.93;94786.78;5025842;28;20041;-53
2020/12/12 02:45:52;;;;;;;43.67;26.38;;;;;;;0.69;80.95;94781.16;5024832;28;20056;-53
2020/12/12 02:48:20;;;;;;;49.63;27.77;;;;;;;0.70;80.70;94780.16;5020111;28;20046;-54
2020/12/12 02:50:46;;;;;;;49.65;28.80;;;;;;;0.65;80.84;94774.81;5022260;28;20050;-57
2020/12/12 02:53:14;;;;;;;45.97;26.45;;;;;;;0.68;81.04;94773.56;5023752;28;20050;-53
2020/12/12 02:55:42;;;;;;;42.58;25.52;;;;;;;0.66;80.37;94760.06;5023242;28;20049;-55
2020/12/12 02:58:12;;;;;;;39.58;24.30;;;;;;;0.66;81.08;94771.22;5051874;28;20076;-53
2020/12/12 03:00:39;;;;;;;48.17;27.35;;;;;;;0.67;80.53;94777.97;5017852;28;20060;-53
2020/12/12 03:03:06;;;;;;;42.30;27.02;;;;;;;0.67;80.76;94774.63;5016066;28;20045;-53
2020/12/12 03:05:37;;;;;;;48.88;29.67;;;;;;;0.63;81.03;94770.88;4980798;28;20046;-54
2020/12/12 03:08:05;;;;;;;42.38;25.77;;;;;;;0.61;81.05;94766.69;5000335;28;20064;-62
2020/12/12 03:10:32;;;;;;;44.80;24.92;;;;;;;0.60;80.97;94769.50;5015594;28;20048;-54
2020/12/12 03:12:59;;;;;;;43.97;28.05;;;;;;;0.60;81.05;94759.91;5031449;28;20041;-52
2020/12/12 03:15:27;;;;;;;40.45;26.15;;;;;;;0.70;80.63;94755.97;5020036;28;20444;-53
2020/12/12 03:17:55;;;;;;;46.00;26.33;;;;;;;0.74;80.82;94767.50;5012650;28;20045;-53
2020/12/12 03:20:23;;;;;;;44.60;27.98;;;;;;;0.74;80.43;94762.31;5054216;28;20080;-54
2020/12/12 03:22:50;;;;;;;40.97;27.20;;;;;;;0.69;80.14;94757.00;5032608;28;20591;-54
2020/12/12 03:25:17;;;;;;;44.00;25.17;;;;;;;0.61;80.40;94765.91;5015702;28;20596;-54
2020/12/12 03:27:47;;;;;;;46.63;25.20;;;;;;;0.55;80.56;94757.19;5009480;28;20053;-53
2020/12/12 03:30:17;;;;;;;40.40;26.67;;;;;;;0.54;81.28;94760.81;5021112;28;20045;-53
2020/12/12 03:32:46;;;;;;;45.80;28.90;;;;;;;0.60;80.42;94759.91;5033943;28;20092;-54
2020/12/12 03:35:13;;;;;;;45.03;27.33;;;;;;;0.68;80.55;94753.63;5016586;28;20283;-53
2020/12/12 03:37:40;;;;;;;43.90;28.63;;;;;;;0.63;80.89;94757.88;5016927;28;20866;-53
2020/12/12 03:40:08;;;;;;;46.55;28.77;;;;;;;0.67;80.86;94761.63;5051888;28;20061;-53
2020/12/12 03:42:35;;;;;;;45.92;27.92;;;;;;;0.61;81.34;94764.09;5030674;28;20259;-54
2020/12/12 03:45:03;;;;;;;45.90;28.77;;;;;;;0.66;80.92;94760.06;5019390;28;20057;-54
2020/12/12 03:47:32;;;;;;;41.92;24.48;;;;;;;0.70;80.79;94761.97;5017343;28;20513;-54
2020/12/12 03:50:05;;;;;;;46.90;29.02;;;;;;;0.74;80.46;94757.13;5017620;28;20053;-54
2020/12/12 03:52:33;;;;;;;43.97;27.88;;;;;;;0.74;80.30;94755.31;5035205;28;20049;-55
2020/12/12 03:55:00;;;;;;;39.20;26.38;;;;;;;0.75;80.60;94749.09;4995396;28;20069;-55
2020/12/12 03:57:27;;;;;;;43.35;27.20;;;;;;;0.74;80.54;94749.34;5025217;28;20049;-54
2020/12/12 03:59:55;;;;;;;44.30;28.15;;;;;;;0.68;80.68;94750.22;5030401;28;20049;-54
2020/12/12 04:02:31;;;;;;;45.00;27.33;;;;;;;0.69;81.09;94757.78;5015877;28;20533;-53
2020/12/12 04:05:04;;;;;;;49.42;27.98;;;;;;;0.70;80.98;94758.56;5008938;28;20046;-55
2020/12/12 04:07:31;;;;;;;44.15;26.90;;;;;;;0.75;81.20;94761.31;5015199;28;20060;-54
2020/12/12 04:10:01;;;;;;;44.20;27.10;;;;;;;0.81;80.84;94749.25;5018620;28;20045;-54
2020/12/12 04:12:31;;;;;;;48.10;29.58;;;;;;;0.80;81.15;94750.25;5005985;28;20527;-54
2020/12/12 04:14:58;;;;;;;52.80;30.77;;;;;;;0.74;81.36;94750.13;5016959;28;20056;-54
2020/12/12 04:17:25;;;;;;;45.95;25.05;;;;;;;0.81;81.37;94752.63;5046755;28;20524;-54
2020/12/12 04:19:56;;;;;;;45.00;27.05;;;;;;;0.90;80.79;94750.50;5020724;28;20056;-54
2020/12/12 04:22:23;;;;;;;48.58;29.65;;;;;;;0.87;81.05;94750.94;5039166;28;20681;-54
2020/12/12 04:24:50;;;;;;;50.60;29.58;;;;;;;0.82;81.42;94756.78;5056857;28;20053;-53
2020/12/12 04:27:20;;;;;;;54.08;29.23;;;;;;;0.79;81.35;94743.47;5027482;28;20533;-54
2020/12/12 04:29:48;;;;;;;50.72;29.55;;;;;;;0.78;81.38;94753.09;5022026;28;20576;-55
2020/12/12 04:32:18;;;;;;;49.33;28.95;;;;;;;0.75;81.27;94743.13;5056583;28;20057;-57
2020/12/12 04:34:46;;;;;;;52.53;29.98;;;;;;;0.75;81.99;94750.94;5025145;28;20513;-57
2020/12/12 04:37:15;;;;;;;46.45;29.15;;;;;;;0.77;81.78;94751.50;5029664;28;20342;-53
2020/12/12 04:39:42;;;;;;;45.08;26.48;;;;;;;0.84;81.78;94762.56;5022887;28;20049;-54
2020/12/12 04:42:12;;;;;;;47.50;28.95;;;;;;;0.83;81.42;94758.38;5027987;28;20053;-55
2020/12/12 04:44:40;;;;;;;41.03;25.63;;;;;;;0.86;81.56;94746.78;5021951;28;20421;-54
2020/12/12 04:47:09;;;;;;;41.38;25.70;;;;;;;0.94;81.32;94756.03;5052138;28;20064;-54
2020/12/12 04:49:36;;;;;;;46.28;26.50;;;;;;;0.96;81.68;94754.00;5023417;28;20056;-54
2020/12/12 04:52:05;;;;;;;47.40;27.13;;;;;;;0.99;81.66;94753.56;5020502;28;20536;-55
2020/12/12 04:54:34;;;;;;;41.97;24.98;;;;;;;0.99;81.46;94751.75;5023074;28;20064;-54
2020/12/12 04:57:03;;;;;;;41.92;24.30;;;;;;;1.04;81.18;94751.88;5011979;28;20490;-55
2020/12/12 04:59:34;;;;;;;50.83;28.13;;;;;;;1.06;81.18;94755.03;5021202;28;20060;-54
2020/12/12 05:02:03;;;;;;;54.90;30.48;;;;;;;1.01;81.18;94757.50;5020152;28;20053;-53
2020/12/12 05:04:30;;;;;;;53.25;29.80;;;;;;;1.01;81.71;94757.50;5023551;28;20421;-54
2020/12/12 05:06:57;;;;;;;49.97;29.27;;;;;;;1.06;80.94;94762.03;5050424;28;20493;-54
2020/12/12 05:09:27;;;;;;;50.10;29.52;;;;;;;1.03;81.32;94754.72;5020579;28;20041;-53
2020/12/12 05:11:55;;;;;;;49.60;30.02;;;;;;;1.10;81.39;94754.59;5019017;28;20076;-53
2020/12/12 05:14:22;;;;;;;65.10;34.65;;;;;;;1.16;81.41;94764.88;5023881;28;20667;-55
2020/12/12 05:16:54;;;;;;;59.42;35.72;;;;;;;1.14;80.80;94751.34;5050239;28;20053;-53
2020/12/12 05:19:22;;;;;;;62.95;35.08;;;;;;;1.06;81.34;94749.03;5052743;28;20046;-54
2020/12/12 05:22:01;;;;;;;60.65;33.40;;;;;;;1.06;81.69;94746.44;5048513;28;20049;-53
2020/12/12 05:24:29;;;;;;;50.97;29.73;;;;;;;1.04;81.97;94746.69;5016562;28;20057;-53
2020/12/12 05:27:02;;;;;;;50.80;30.65;;;;;;;1.00;81.63;94749.94;5015793;28;20042;-55
2020/12/12 05:29:29;;;;;;;55.88;30.48;;;;;;;0.94;81.94;94745.63;5021477;28;20132;-53
2020/12/12 05:32:03;;;;;;;47.97;28.55;;;;;;;0.87;82.29;94743.94;5039387;28;20045;-54
2020/12/12 05:34:31;;;;;;;58.73;33.13;;;;;;;0.89;82.17;94747.13;4995088;28;20238;-54
2020/12/12 05:37:03;;;;;;;44.35;26.48;;;;;;;0.91;82.51;94742.50;5017194;28;20053;-53
2020/12/12 05:39:30;;;;;;;45.28;25.85;;;;;;;1.00;82.04;94745.53;5034691;28;20045;-53
2020/12/12 05:42:02;;;;;;;49.78;29.33;;;;;;;0.88;82.17;94727.38;5052334;28;20049;-54
2020/12/12 05:44:30;;;;;;;51.00;27.80;;;;;;;0.94;82.12;94740.44;5050732;28;20076;-53
2020/12/12 05:46:59;;;;;;;48.42;26.48;;;;;;;1.01;82.19;94739.34;5015280;28;20049;-55
2020/12/12 05:49:27;;;;;;;45.88;27.45;;;;;;;1.04;81.90;94738.88;5020597;28;20090;-54
2020/12/12 05:51:55;;;;;;;51.47;30.25;;;;;;;0.99;82.38;94743.19;5017634;28;20046;-53
2020/12/12 05:54:23;;;;;;;45.92;29.63;;;;;;;1.03;82.13;94755.47;5012988;28;20057;-55
2020/12/12 05:56:52;;;;;;;46.72;29.15;;;;;;;1.04;82.19;94749.28;5048285;28;20061;-55
2020/12/12 05:59:22;;;;;;;43.97;28.40;;;;;;;1.15;82.06;94752.09;5002736;28;20057;-55
2020/12/12 06:01:54;;;;;;;47.67;28.90;;;;;;;1.19;81.75;94759.22;5034760;28;20057;-54
2020/12/12 06:04:34;;;;;;;46.83;28.45;;;;;;;1.25;81.36;94748.97;5018632;28;20064;-54
2020/12/12 06:07:17;;;;;;;48.67;28.88;;;;;;;1.26;81.72;94751.31;5050979;28;20049;-54
2020/12/12 06:09:49;;;;;;;44.85;27.83;;;;;;;1.24;81.30;94755.94;5015279;28;20045;-54
2020/12/12 06:12:17;;;;;;;52.08;31.15;;;;;;;1.23;81.56;94754.38;5018217;28;20068;-53
2020/12/12 06:14:48;;;;;;;51.03;27.48;;;;;;;1.17;81.82;94753.47;5042527;28;20068;-55
2020/12/12 06:17:21;;;;;;;52.38;29.55;;;;;;;1.17;81.96;94745.66;5027061;28;20046;-59
2020/12/12 06:19:50;;;;;;;52.65;31.38;;;;;;;1.11;81.79;94756.97;5004662;28;20419;-52
2020/12/12 06:22:22;;;;;;;47.22;28.70;;;;;;;1.09;82.37;94753.78;5050211;28;20065;-53
2020/12/12 06:24:59;;;;;;;58.58;33.03;;;;;;;1.17;82.12;94745.66;5048735;28;20050;-55
2020/12/12 06:27:37;;;;;;;56.38;32.50;;;;;;;1.18;81.63;94749.06;5012264;28;20049;-54
2020/12/12 06:30:12;;;;;;;48.67;29.23;;;;;;;1.15;81.88;94746.91;5014404;28;20052;-53
2020/12/12 06:32:43;;;;;;;45.33;27.60;;;;;;;1.22;81.86;94752.81;5018897;28;20061;-55
2020/12/12 06:35:16;;;;;;;51.53;29.50;;;;;;;1.21;81.79;94748.63;5035673;28;20052;-64
2020/12/12 06:37:43;;;;;;;51.83;30.13;;;;;;;1.22;81.66;94751.00;5048720;28;20042;-55
2020/12/12 06:40:15;;;;;;;52.58;30.48;;;;;;;1.25;81.70;94756.75;5024216;28;20397;-53
2020/12/12 06:42:45;;;;;;;60.67;36.65;;;;;;;1.28;82.10;94748.53;5043735;28;20065;-54
2020/12/12 06:45:15;;;;;;;64.63;35.40;;;;;;;1.26;81.51;94753.16;5020911;28;20065;-53
2020/12/12 06:47:45;;;;;;;64.03;37.42;;;;;;;1.28;81.45;94751.13;5019482;28;20045;-53
2020/12/12 06:50:15;;;;;;;63.08;37.13;;;;;;;1.32;81.17;94747.03;5032558;28;20053;-54
2020/12/12 06:52:43;;;;;;;60.22;34.38;;;;;;;1.38;80.72;94751.34;4996882;28;20061;-54
2020/12/12 06:55:14;;;;;;;63.08;34.10;;;;;;;1.45;80.77;94752.00;5016244;28;20060;-54
2020/12/12 06:57:43;;;;;;;76.40;43.28;;;;;;;1.42;80.52;94741.28;5006643;28;20049;-56
2020/12/12 07:00:20;;;;;;;60.65;35.60;;;;;;;1.45;81.07;94752.00;5000292;28;20057;-55
2020/12/12 07:02:58;;;;;;;59.47;34.03;;;;;;;1.48;81.05;94748.16;5019441;28;20050;-53
2020/12/12 07:05:29;;;;;;;49.58;28.55;;;;;;;1.48;81.11;94754.16;5011867;28;20057;-53
2020/12/12 07:08:05;;;;;;;46.53;29.63;;;;;;;1.45;80.74;94757.19;4999579;28;20057;-55
2020/12/12 07:10:33;;;;;;;49.42;31.27;;;;;;;1.48;80.75;94754.16;5014049;28;20046;-54
2020/12/12 07:13:01;;;;;;;55.80;37.17;;;;;;;1.51;80.84;94748.50;5020322;28;20048;-54
2020/12/12 07:15:32;;;;;;;56.05;33.03;;;;;;;1.60;80.53;94753.34;5015616;28;20049;-55
2020/12/12 07:18:04;;;;;;;51.10;32.55;;;;;;;1.64;80.65;94760.47;5008314;28;20056;-60
2020/12/12 07:20:44;;;;;;;56.03;33.38;;;;;;;1.70;80.50;94758.75;5012282;28;20045;-54
2020/12/12 07:23:12;;;;;;;49.55;30.75;;;;;;;1.79;80.11;94761.81;5019530;28;20413;-54
2020/12/12 07:25:39;;;;;;;56.75;34.58;;;;;;;1.74;80.11;94765.09;5026324;28;20049;-54
2020/12/12 07:28:08;;;;;;;47.33;31.35;;;;;;;1.76;80.21;94763.06;5039532;28;20650;-54
2020/12/12 07:30:38;;;;;;;63.85;37.35;;;;;;;1.73;80.49;94763.50;5036685;28;20052;-54
2020/12/12 07:33:05;;;;;;;58.15;34.67;;;;;;;1.69;80.46;94757.19;5043786;28;20057;-55
2020/12/12 07:35:32;;;;;;;55.22;32.72;;;;;;;1.73;80.86;94765.31;5013200;28;20876;-54
2020/12/12 07:38:06;;;;;;;51.15;30.23;;;;;;;1.87;80.38;94768.47;5023279;28;20372;-54
2020/12/12 07:40:34;;;;;;;60.72;42.55;;;;;;;2.00;79.91;94768.22;5016931;28;20053;-54
2020/12/12 07:43:09;;;;;;;52.85;36.50;;;;;;;2.10;79.33;94768.41;5046511;28;20329;-55
2020/12/12 07:48:17;;;;;;;48.72;34.65;;;;;;;2.27;78.87;94772.91;5008924;28;20053;-54
2020/12/12 07:50:44;;;;;;;56.63;34.50;;;;;;;2.25;78.63;94762.72;5043735;28;20520;-54
2020/12/12 07:53:16;;;;;;;56.40;34.30;;;;;;;2.25;78.63;94765.31;5040613;28;20064;-54
2020/12/12 07:55:52;;;;;;;59.38;36.20;;;;;;;2.21;79.12;94759.00;5013498;28;20120;-54
2020/12/12 07:58:26;;;;;;;52.20;32.80;;;;;;;2.28;79.09;94766.66;5038903;28;20076;-54
2020/12/12 08:01:02;;;;;;;55.40;33.72;;;;;;;2.32;79.16;94775.59;5030441;28;20133;-58
2020/12/12 08:03:32;;;;;;;52.70;31.40;;;;;;;2.41;79.10;94770.81;5011018;28;20049;-56
2020/12/12 08:06:08;;;;;;;57.28;34.00;;;;;;;2.49;78.88;94767.06;5049841;28;20819;-54
2020/12/12 08:08:36;;;;;;;;;;;;;;;2.62;78.32;94769.38;5017861;28;20064;-55
2020/12/12 08:11:05;;;;;;;52.42;32.38;;;;;;;2.66;78.01;94767.88;5014237;28;19921;-55
2020/12/12 08:13:32;;;;;;;56.72;35.80;;;;;;;2.66;77.68;94770.47;5048207;28;20072;-53
2020/12/12 08:16:09;;;;;;;61.65;37.92;;;;;;;2.67;77.94;94773.88;5007222;28;20058;-56
2020/12/12 08:18:36;;;;;;;52.65;33.53;;;;;;;2.69;78.05;94769.25;5004381;28;20048;-53
2020/12/12 08:21:14;;;;;;;56.33;35.38;;;;;;;2.74;77.86;94777.13;5012646;28;20050;-53
2020/12/12 08:23:44;;;;;;;59.13;35.97;;;;;;;2.81;77.67;94774.38;5009780;28;20505;-54
2020/12/12 08:26:19;;;;;;;59.28;35.55;;;;;;;2.94;77.80;94781.91;5017098;28;20504;-54
2020/12/12 08:28:48;;;;;;;50.40;33.97;;;;;;;2.99;77.74;94784.59;5009630;28;20757;-54
2020/12/12 08:31:20;;;;;;;53.47;33.80;;;;;;;3.12;77.51;94793.13;5016866;28;20053;-54
2020/12/12 08:33:56;;;;;;;56.33;36.35;;;;;;;3.16;77.34;94782.00;5053899;28;20067;-53
2020/12/12 08:36:29;;;;;;;;;;;;;;;3.22;77.12;94782.88;5050228;28;20059;-54
2020/12/12 08:38:58;;;;;;;56.90;35.15;;;;;;;3.35;76.97;94792.16;5019854;28;19928;-54
2020/12/12 08:41:37;;;;;;;51.03;33.70;;;;;;;3.44;76.62;94784.75;5020114;28;20049;-54
2020/12/12 08:44:06;;;;;;;57.40;34.67;;;;;;;3.57;76.40;94786.25;5012660;28;20171;-55
2020/12/12 08:46:33;;;;;;;52.38;34.50;;;;;;;3.69;76.57;94782.50;5013723;28;20219;-54
2020/12/12 08:49:00;;;;;;;51.80;34.50;;;;;;;3.80;76.18;94787.88;5015680;28;20049;-54
2020/12/12 08:51:30;;;;;;;49.30;31.00;;;;;;;3.95;74.85;94782.06;5008568;28;20050;-54
2020/12/12 08:53:58;;;;;;;38.15;26.67;;;;;;;4.07;74.62;94781.94;5028200;28;20065;-55
2020/12/12 08:56:29;;;;;;;37.35;26.50;;;;;;;4.18;74.62;94780.25;5010530;28;20050;-55
2020/12/12 08:59:05;;;;;;;43.95;29.77;;;;;;;4.22;74.10;94783.94;5037128;28;20293;-54
2020/12/12 09:01:44;;;;;;;46.50;28.38;;;;;;;4.26;74.11;94785.06;5002361;28;20088;-54
2020/12/12 09:04:15;;;;;;;43.80;27.70;;;;;;;4.29;73.41;94790.56;4994864;28;20049;-54
2020/12/12 09:06:43;;;;;;;47.78;28.58;;;;;;;4.32;73.22;94786.69;5042428;28;20445;-53
2020/12/12 09:09:23;;;;;;;41.10;28.45;;;;;;;4.32;73.33;94786.69;4994714;28;20089;-54
2020/12/12 09:12:01;;;;;;;44.50;26.90;;;;;;;4.32;73.24;94789.28;5014334;28;20038;-54
2020/12/12 09:14:33;;;;;;;38.67;26.00;;;;;;;4.39;72.81;94794.31;5002781;28;20062;-54
2020/12/12 09:17:01;;;;;;;39.90;27.13;;;;;;;4.43;73.21;94793.59;5016051;28;20057;-54
2020/12/12 09:19:45;;;;;;;39.25;25.58;;;;;;;4.47;72.25;94796.53;5035426;28;20142;-54
2020/12/12 09:22:46;;;;;;;39.00;23.55;;;;;;;4.50;72.42;94785.56;5057480;28;20061;-54
2020/12/12 09:25:36;;;;;;;38.45;25.75;;;;;;;4.50;72.28;94772.50;5009250;28;20080;-54
2020/12/12 09:28:03;;;;;;;37.92;26.23;;;;;;;4.51;71.63;94776.69;5022316;28;20057;-54
2020/12/12 09:30:30;;;;;;;35.13;24.35;;;;;;;4.52;72.04;94780.13;5016572;28;20061;-57
2020/12/12 09:32:57;;;;;;;38.30;25.65;;;;;;;4.56;72.24;94774.16;5009520;28;20418;-54
2020/12/12 09:35:24;;;;;;;41.88;28.70;;;;;;;4.64;72.08;94772.94;5027422;28;20057;-55
2020/12/12 09:37:54;;;;;;;39.85;24.10;;;;;;;4.67;72.39;94774.25;5006393;28;20682;-54
2020/12/12 09:40:21;;;;;;;32.92;23.65;;;;;;;4.66;71.57;94772.69;5017705;28;20068;-54
2020/12/12 09:42:48;;;;;;;35.75;25.23;;;;;;;4.64;71.67;94766.91;5011188;28;20052;-53
2020/12/12 09:45:15;;;;;;;32.15;22.38;;;;;;;4.60;71.67;94770.03;5015041;28;20049;-54
2020/12/12 09:47:43;;;;;;;37.10;22.77;;;;;;;4.58;72.21;94760.84;4986043;28;20068;-55
2020/12/12 09:50:10;;;;;;;32.42;22.08;;;;;;;4.65;72.07;94765.88;5015718;28;20514;-55
2020/12/12 09:52:38;;;;;;;34.17;22.15;;;;;;;4.69;71.83;94765.13;5011591;28;20096;-55
2020/12/12 09:55:05;;;;;;;33.00;21.55;;;;;;;4.76;71.48;94762.31;5041891;28;20057;-55
2020/12/12 09:57:33;;;;;;;28.95;19.63;;;;;;;4.86;71.54;94761.63;5012188;28;20072;-59
2020/12/12 10:00:00;;;;;;;33.90;22.23;;;;;;;4.93;71.03;94756.97;5007112;28;20050;-54
2020/12/12 10:02:27;;;;;;;31.58;22.38;;;;;;;4.93;71.60;94751.75;5014863;28;20072;-58
2020/12/12 10:04:55;;;;;;;35.58;23.50;;;;;;;4.91;71.68;94756.47;5017434;28;20503;-54
2020/12/12 10:07:22;;;;;;;32.60;21.23;;;;;;;4.91;71.38;94756.47;4997410;28;20413;-54
2020/12/12 10:09:49;;;;;;;26.95;20.30;;;;;;;4.92;71.48;94750.97;5009845;28;20057;-56
2020/12/12 10:12:17;;;;;;;29.45;19.88;;;;;;;4.99;71.35;94757.81;4988360;28;20045;-54
2020/12/12 10:14:44;;;;;;;36.20;21.70;;;;;;;4.98;71.61;94748.41;5027883;28;20058;-53
2020/12/12 10:17:12;;;;;;;29.13;21.48;;;;;;;5.04;71.79;94750.03;5028789;28;20060;-53
2020/12/12 10:19:39;;;;;;;29.02;20.98;;;;;;;5.06;71.70;94751.34;5012569;28;20878;-53
2020/12/12 10:22:06;;;;;;;33.67;21.73;;;;;;;5.07;71.13;94757.38;5013285;28;20385;-53
2020/12/12 10:24:33;;;;;;;33.38;21.73;;;;;;;5.06;71.07;94750.56;5007732;28;20626;-55
2020/12/12 10:27:00;;;;;;;30.77;21.33;;;;;;;5.10;71.34;94753.47;5009454;28;20053;-55
2020/12/12 10:29:28;;;;;;;31.02;21.08;;;;;;;5.17;71.03;94754.84;5012923;28;20528;-55
2020/12/12 10:31:55;;;;;;;32.53;21.20;;;;;;;5.20;70.16;94750.94;5013620;28;20068;-58
2020/12/12 10:34:23;;;;;;;28.05;20.33;;;;;;;5.26;70.37;94754.38;5017772;28;20064;-57
2020/12/12 10:36:50;;;;;;;35.38;21.70;;;;;;;5.23;70.31;94756.44;5010543;28;20421;-55
2020/12/12 10:39:26;;;;;;;26.20;18.27;;;;;;;5.24;69.98;94755.41;5028697;28;20425;-54
2020/12/12 10:41:53;;;;;;;35.50;20.15;;;;;;;5.22;70.16;94762.72;5021916;28;20557;-55
2020/12/12 10:44:20;;;;;;;33.58;20.38;;;;;;;5.31;70.58;94757.81;5048151;28;20052;-55
2020/12/12 10:46:47;;;;;;;27.15;19.40;;;;;;;5.43;69.70;94762.88;5019331;28;20409;-55
2020/12/12 10:49:15;;;;;;;30.45;19.98;;;;;;;5.51;69.49;94761.63;5017321;28;20642;-55
2020/12/12 10:51:52;;;;;;;35.05;21.10;;;;;;;5.53;69.90;94759.56;5016202;28;20046;-54
2020/12/12 10:54:21;;;;;;;29.40;20.80;;;;;;;5.64;69.60;94755.16;5001736;28;20057;-54
2020/12/12 10:56:48;;;;;;;32.55;21.35;;;;;;;5.72;69.58;94749.47;5007490;28;20159;-56
2020/12/12 10:59:15;;;;;;;33.30;22.50;;;;;;;5.80;69.74;94759.44;5002108;28;20045;-55
2020/12/12 11:01:42;;;;;;;38.67;27.05;;;;;;;5.88;68.97;94752.13;5052469;28;20045;-55
2020/12/12 11:04:10;;;;;;;37.75;24.83;;;;;;;6.01;69.63;94759.56;5053415;28;20053;-55
2020/12/12 11:06:38;;;;;;;38.33;25.70;;;;;;;6.04;69.69;94748.59;5045600;28;20041;-61
2020/12/12 11:09:05;;;;;;;40.15;25.35;;;;;;;6.07;69.63;94745.47;5003753;28;20745;-55
2020/12/12 11:11:32;;;;;;;35.30;24.63;;;;;;;6.13;69.45;94754.91;4997955;28;20041;-55
2020/12/12 11:13:59;;;;;;;42.47;28.20;;;;;;;6.21;69.72;94752.84;5007553;28;20065;-55
2020/12/12 11:16:27;;;;;;;38.75;25.65;;;;;;;6.20;69.43;94748.66;5033298;28;20497;-54
2020/12/12 11:18:55;;;;;;;41.00;25.92;;;;;;;6.20;69.60;94748.66;5006711;28;20409;-54
2020/12/12 11:21:28;;;;;;;37.58;25.30;;;;;;;6.22;68.67;94749.97;5040729;28;20472;-55
2020/12/12 11:23:56;;;;;;;31.75;21.25;;;;;;;6.25;68.35;94744.22;5044571;28;20068;-64
2020/12/12 11:26:25;;;;;;;31.48;22.45;;;;;;;6.31;68.67;94747.66;5016919;28;20049;-57
2020/12/12 11:28:55;;;;;;;28.63;17.73;;;;;;;6.40;67.26;94743.47;4984086;28;20072;-55
2020/12/12 11:31:23;;;;;;;35.80;13.30;;;;;;;6.54;66.80;94750.84;5013736;28;20403;-56
2020/12/12 11:34:01;;;;;;;27.65;11.77;;;;;;;6.62;65.72;94745.09;5018281;28;20061;-66
2020/12/12 11:39:20;;;;;;;6.75;4.25;;;;;;;6.82;64.53;94744.34;5013219;28;20061;-55
2020/12/12 11:47:03;;;;;;;52.70;8.10;;;;;;;7.07;64.00;94746.22;5033529;28;20061;-55
2020/12/12 11:49:31;;;;;;;4.50;3.17;;;;;;;7.13;62.96;94751.44;5026923;28;20060;-56